X10 weather

Belle Glade State Municipal Airport
Belle Glade, Florida, United States

Public forecast

Using degrees Fahrenheit for public forecast. Weather courtesy of forecast.io.

Closest aviation weather report (METAR) to Belle Glade State Municipal Airport

Closest report is Palm Beach International Airport, 30.4 nm (56.3 km) E. Retrieved 2020/02/27 15:53 UTC (58 minutes ago):

KPBI 271553Z 32019KT 10SM SCT028 BKN150 BKN190 17/06 A3017 RMK AO2 SLP216 T01720061

Closest aviation forecast (TAF) to Belle Glade State Municipal Airport

Closest forecast is Palm Beach International Airport, 30.4 nm (56.3 km) E. Retrieved 2020/02/27 12:40 UTC (4 hours ago):

TAF KPBI 271136Z 2712/2812 32012KT P6SM SCT020 BKN030 TEMPO 2712/2713 -RA BKN015 FM271600 33013KT P6SM FEW035 FM280000 30005KT P6SM SKC